sensor_id;sensor_type;location;lat;lon;timestamp;temperature;humidity
21255;DHT22;10785;50.674;17.954;2022-09-29T00:01:43;8.30;1.00
21255;DHT22;10785;50.674;17.954;2022-09-29T00:04:12;8.30;47.10
21255;DHT22;10785;50.674;17.954;2022-09-29T00:06:41;8.30;1.00
21255;DHT22;10785;50.674;17.954;2022-09-29T00:09:11;8.30;1.00
21255;DHT22;10785;50.674;17.954;2022-09-29T00:11:39;8.30;1.00
21255;DHT22;10785;50.674;17.954;2022-09-29T00:14:10;8.30;1.00
21255;DHT22;10785;50.674;17.954;2022-09-29T00:16:39;8.30;23.30
21255;DHT22;10785;50.674;17.954;2022-09-29T00:19:08;8.40;60.20
21255;DHT22;10785;50.674;17.954;2022-09-29T00:21:38;8.30;99.90
21255;DHT22;10785;50.674;17.954;2022-09-29T00:24:06;8.40;99.90
21255;DHT22;10785;50.674;17.954;2022-09-29T00:26:35;8.40;1.00
21255;DHT22;10785;50.674;17.954;2022-09-29T00:29:05;8.40;1.00
21255;DHT22;10785;50.674;17.954;2022-09-29T00:31:35;8.40;1.00
21255;DHT22;10785;50.674;17.954;2022-09-29T00:34:04;8.40;10.80
21255;DHT22;10785;50.674;17.954;2022-09-29T00:36:33;8.40;99.90
21255;DHT22;10785;50.674;17.954;2022-09-29T00:39:03;8.40;1.00
21255;DHT22;10785;50.674;17.954;2022-09-29T00:41:35;8.40;1.00
21255;DHT22;10785;50.674;17.954;2022-09-29T00:44:06;8.40;1.00
21255;DHT22;10785;50.674;17.954;2022-09-29T00:46:41;8.30;1.00
21255;DHT22;10785;50.674;17.954;2022-09-29T00:49:15;8.40;24.70
21255;DHT22;10785;50.674;17.954;2022-09-29T00:51:50;8.40;1.00
21255;DHT22;10785;50.674;17.954;2022-09-29T00:54:19;8.40;1.00
21255;DHT22;10785;50.674;17.954;2022-09-29T00:56:49;8.30;1.00
21255;DHT22;10785;50.674;17.954;2022-09-29T00:59:22;8.30;1.00
21255;DHT22;10785;50.674;17.954;2022-09-29T01:01:53;8.30;1.00
21255;DHT22;10785;50.674;17.954;2022-09-29T01:04:22;8.20;1.00
21255;DHT22;10785;50.674;17.954;2022-09-29T01:06:54;8.20;1.00
21255;DHT22;10785;50.674;17.954;2022-09-29T01:09:27;8.20;1.00
21255;DHT22;10785;50.674;17.954;2022-09-29T01:11:57;8.20;1.00
21255;DHT22;10785;50.674;17.954;2022-09-29T01:14:28;8.20;1.00
21255;DHT22;10785;50.674;17.954;2022-09-29T01:16:59;8.20;1.00
21255;DHT22;10785;50.674;17.954;2022-09-29T01:19:35;8.30;60.50
21255;DHT22;10785;50.674;17.954;2022-09-29T01:22:13;8.30;99.90
21255;DHT22;10785;50.674;17.954;2022-09-29T01:25:05;8.30;1.00
21255;DHT22;10785;50.674;17.954;2022-09-29T01:31:07;8.30;99.90
21255;DHT22;10785;50.674;17.954;2022-09-29T01:33:43;8.30;99.90
21255;DHT22;10785;50.674;17.954;2022-09-29T01:36:25;8.30;1.00
21255;DHT22;10785;50.674;17.954;2022-09-29T01:39:03;8.30;99.90
21255;DHT22;10785;50.674;17.954;2022-09-29T01:41:37;8.30;1.00
21255;DHT22;10785;50.674;17.954;2022-09-29T01:44:15;8.30;1.00
21255;DHT22;10785;50.674;17.954;2022-09-29T01:46:49;8.30;1.00
21255;DHT22;10785;50.674;17.954;2022-09-29T01:49:20;8.30;1.00
21255;DHT22;10785;50.674;17.954;2022-09-29T01:51:53;8.30;99.90
21255;DHT22;10785;50.674;17.954;2022-09-29T01:54:27;8.30;99.90
21255;DHT22;10785;50.674;17.954;2022-09-29T01:57:00;8.20;1.00
21255;DHT22;10785;50.674;17.954;2022-09-29T01:59:36;8.30;99.90
21255;DHT22;10785;50.674;17.954;2022-09-29T02:02:11;8.30;1.00
21255;DHT22;10785;50.674;17.954;2022-09-29T02:04:44;8.30;1.00
21255;DHT22;10785;50.674;17.954;2022-09-29T02:07:18;8.30;99.90
21255;DHT22;10785;50.674;17.954;2022-09-29T02:09:51;8.30;1.00
21255;DHT22;10785;50.674;17.954;2022-09-29T02:12:27;8.30;99.90
21255;DHT22;10785;50.674;17.954;2022-09-29T02:14:57;8.30;99.90
21255;DHT22;10785;50.674;17.954;2022-09-29T02:17:34;8.30;99.90
21255;DHT22;10785;50.674;17.954;2022-09-29T02:20:05;8.30;99.90
21255;DHT22;10785;50.674;17.954;2022-09-29T02:22:35;8.20;1.00
21255;DHT22;10785;50.674;17.954;2022-09-29T02:25:08;8.30;99.90
21255;DHT22;10785;50.674;17.954;2022-09-29T02:27:38;8.30;1.00
21255;DHT22;10785;50.674;17.954;2022-09-29T02:30:08;8.30;99.90
21255;DHT22;10785;50.674;17.954;2022-09-29T02:32:40;8.30;99.90
21255;DHT22;10785;50.674;17.954;2022-09-29T02:35:10;8.30;99.90
21255;DHT22;10785;50.674;17.954;2022-09-29T02:37:52;8.20;99.90
21255;DHT22;10785;50.674;17.954;2022-09-29T02:40:31;8.30;99.90
21255;DHT22;10785;50.674;17.954;2022-09-29T02:43:14;8.20;1.00
21255;DHT22;10785;50.674;17.954;2022-09-29T02:45:58;8.30;1.00
21255;DHT22;10785;50.674;17.954;2022-09-29T02:48:52;8.30;99.90
21255;DHT22;10785;50.674;17.954;2022-09-29T02:51:26;8.30;99.90
21255;DHT22;10785;50.674;17.954;2022-09-29T02:54:10;8.30;1.00
21255;DHT22;10785;50.674;17.954;2022-09-29T02:56:46;8.30;99.90
21255;DHT22;10785;50.674;17.954;2022-09-29T02:59:22;8.30;1.00
21255;DHT22;10785;50.674;17.954;2022-09-29T03:01:54;8.30;99.90
21255;DHT22;10785;50.674;17.954;2022-09-29T03:04:26;8.30;1.00
21255;DHT22;10785;50.674;17.954;2022-09-29T03:06:56;8.30;1.00
21255;DHT22;10785;50.674;17.954;2022-09-29T03:09:25;8.20;99.90
21255;DHT22;10785;50.674;17.954;2022-09-29T03:11:54;8.30;99.90
21255;DHT22;10785;50.674;17.954;2022-09-29T03:14:24;8.20;99.90
21255;DHT22;10785;50.674;17.954;2022-09-29T03:16:53;8.20;1.00
21255;DHT22;10785;50.674;17.954;2022-09-29T03:19:22;8.20;99.90
21255;DHT22;10785;50.674;17.954;2022-09-29T03:21:53;8.20;99.90
21255;DHT22;10785;50.674;17.954;2022-09-29T03:24:22;8.20;1.00
21255;DHT22;10785;50.674;17.954;2022-09-29T03:26:51;8.10;1.00
21255;DHT22;10785;50.674;17.954;2022-09-29T03:29:20;8.20;1.00
21255;DHT22;10785;50.674;17.954;2022-09-29T03:31:49;8.20;1.00
21255;DHT22;10785;50.674;17.954;2022-09-29T03:34:18;8.20;1.00
21255;DHT22;10785;50.674;17.954;2022-09-29T03:36:47;8.20;1.00
21255;DHT22;10785;50.674;17.954;2022-09-29T03:39:17;8.20;1.00
21255;DHT22;10785;50.674;17.954;2022-09-29T03:41:47;8.20;99.90
21255;DHT22;10785;50.674;17.954;2022-09-29T03:44:16;8.20;1.00
21255;DHT22;10785;50.674;17.954;2022-09-29T03:46:45;8.20;1.00
21255;DHT22;10785;50.674;17.954;2022-09-29T03:49:14;8.20;1.00
21255;DHT22;10785;50.674;17.954;2022-09-29T03:51:43;8.20;1.00
21255;DHT22;10785;50.674;17.954;2022-09-29T03:54:13;8.20;1.00
21255;DHT22;10785;50.674;17.954;2022-09-29T03:56:43;8.20;1.00
21255;DHT22;10785;50.674;17.954;2022-09-29T03:59:12;8.20;1.00
21255;DHT22;10785;50.674;17.954;2022-09-29T04:01:42;8.20;1.00
21255;DHT22;10785;50.674;17.954;2022-09-29T04:04:11;8.20;15.10
21255;DHT22;10785;50.674;17.954;2022-09-29T04:06:40;8.20;1.00
21255;DHT22;10785;50.674;17.954;2022-09-29T04:09:12;8.20;1.00
21255;DHT22;10785;50.674;17.954;2022-09-29T04:11:41;8.20;1.00
21255;DHT22;10785;50.674;17.954;2022-09-29T04:14:11;8.20;60.90
21255;DHT22;10785;50.674;17.954;2022-09-29T04:16:40;8.20;85.00
21255;DHT22;10785;50.674;17.954;2022-09-29T04:19:08;8.20;85.10
21255;DHT22;10785;50.674;17.954;2022-09-29T04:21:38;8.20;1.00
21255;DHT22;10785;50.674;17.954;2022-09-29T04:24:07;8.10;1.00
21255;DHT22;10785;50.674;17.954;2022-09-29T04:26:36;8.10;4.50
21255;DHT22;10785;50.674;17.954;2022-09-29T04:29:07;8.10;1.00
21255;DHT22;10785;50.674;17.954;2022-09-29T04:31:37;8.10;1.00
21255;DHT22;10785;50.674;17.954;2022-09-29T04:34:06;8.10;57.70
21255;DHT22;10785;50.674;17.954;2022-09-29T04:36:35;8.10;99.90
21255;DHT22;10785;50.674;17.954;2022-09-29T04:39:04;8.00;99.90
21255;DHT22;10785;50.674;17.954;2022-09-29T04:41:33;8.10;1.00
21255;DHT22;10785;50.674;17.954;2022-09-29T04:44:06;8.10;1.00
21255;DHT22;10785;50.674;17.954;2022-09-29T04:46:36;8.10;1.00
21255;DHT22;10785;50.674;17.954;2022-09-29T04:49:05;8.10;1.00
21255;DHT22;10785;50.674;17.954;2022-09-29T04:51:34;8.10;1.00
21255;DHT22;10785;50.674;17.954;2022-09-29T04:54:03;8.10;1.00
21255;DHT22;10785;50.674;17.954;2022-09-29T04:56:33;8.20;1.00
21255;DHT22;10785;50.674;17.954;2022-09-29T04:59:02;8.20;1.00
21255;DHT22;10785;50.674;17.954;2022-09-29T05:01:31;8.20;1.00
21255;DHT22;10785;50.674;17.954;2022-09-29T05:04:02;8.20;1.00
21255;DHT22;10785;50.674;17.954;2022-09-29T05:06:30;8.20;1.00
21255;DHT22;10785;50.674;17.954;2022-09-29T05:09:01;8.20;1.00
21255;DHT22;10785;50.674;17.954;2022-09-29T05:11:29;8.20;1.00
21255;DHT22;10785;50.674;17.954;2022-09-29T05:13:59;8.30;1.00
21255;DHT22;10785;50.674;17.954;2022-09-29T05:16:28;8.30;1.00
21255;DHT22;10785;50.674;17.954;2022-09-29T05:18:57;8.30;1.00
21255;DHT22;10785;50.674;17.954;2022-09-29T05:21:27;8.20;1.00
21255;DHT22;10785;50.674;17.954;2022-09-29T05:23:56;8.20;1.00
21255;DHT22;10785;50.674;17.954;2022-09-29T05:26:25;8.30;1.00
21255;DHT22;10785;50.674;17.954;2022-09-29T05:28:54;8.30;1.00
21255;DHT22;10785;50.674;17.954;2022-09-29T05:31:23;8.30;1.00
21255;DHT22;10785;50.674;17.954;2022-09-29T05:33:54;8.30;1.00
21255;DHT22;10785;50.674;17.954;2022-09-29T05:36:23;8.30;1.00
21255;DHT22;10785;50.674;17.954;2022-09-29T05:38:54;8.30;1.00
21255;DHT22;10785;50.674;17.954;2022-09-29T05:41:23;8.30;1.00
21255;DHT22;10785;50.674;17.954;2022-09-29T05:43:54;8.30;1.00
21255;DHT22;10785;50.674;17.954;2022-09-29T05:46:23;8.30;1.00
21255;DHT22;10785;50.674;17.954;2022-09-29T05:48:52;8.40;1.00
21255;DHT22;10785;50.674;17.954;2022-09-29T05:51:22;8.40;1.00
21255;DHT22;10785;50.674;17.954;2022-09-29T05:53:51;8.50;1.00
21255;DHT22;10785;50.674;17.954;2022-09-29T05:56:25;8.60;1.00
21255;DHT22;10785;50.674;17.954;2022-09-29T05:58:54;8.80;1.00
21255;DHT22;10785;50.674;17.954;2022-09-29T06:01:24;8.90;1.00
21255;DHT22;10785;50.674;17.954;2022-09-29T06:03:54;8.90;99.90
21255;DHT22;10785;50.674;17.954;2022-09-29T06:06:25;9.00;99.90
21255;DHT22;10785;50.674;17.954;2022-09-29T06:08:56;9.10;1.00
21255;DHT22;10785;50.674;17.954;2022-09-29T06:11:27;9.10;1.00
21255;DHT22;10785;50.674;17.954;2022-09-29T06:13:57;9.20;1.00
21255;DHT22;10785;50.674;17.954;2022-09-29T06:16:28;9.20;1.00
21255;DHT22;10785;50.674;17.954;2022-09-29T06:18:59;9.30;1.00
21255;DHT22;10785;50.674;17.954;2022-09-29T06:21:30;9.40;1.00
21255;DHT22;10785;50.674;17.954;2022-09-29T06:24:00;9.40;99.90
21255;DHT22;10785;50.674;17.954;2022-09-29T06:26:30;9.50;1.00
21255;DHT22;10785;50.674;17.954;2022-09-29T06:29:01;9.50;1.00
21255;DHT22;10785;50.674;17.954;2022-09-29T06:31:31;9.60;99.90
21255;DHT22;10785;50.674;17.954;2022-09-29T06:34:01;9.70;99.90
21255;DHT22;10785;50.674;17.954;2022-09-29T06:36:34;9.80;1.00
21255;DHT22;10785;50.674;17.954;2022-09-29T06:39:20;9.80;1.00
21255;DHT22;10785;50.674;17.954;2022-09-29T06:41:51;9.80;1.00
21255;DHT22;10785;50.674;17.954;2022-09-29T06:44:23;9.90;42.90
21255;DHT22;10785;50.674;17.954;2022-09-29T06:46:53;10.10;99.90
21255;DHT22;10785;50.674;17.954;2022-09-29T06:49:23;10.20;1.00
21255;DHT22;10785;50.674;17.954;2022-09-29T06:51:52;10.50;99.90
21255;DHT22;10785;50.674;17.954;2022-09-29T06:54:22;10.50;1.00
21255;DHT22;10785;50.674;17.954;2022-09-29T06:56:53;10.60;1.00
21255;DHT22;10785;50.674;17.954;2022-09-29T06:59:23;10.70;1.00
21255;DHT22;10785;50.674;17.954;2022-09-29T07:01:51;10.70;1.00
21255;DHT22;10785;50.674;17.954;2022-09-29T07:04:21;10.80;1.00
21255;DHT22;10785;50.674;17.954;2022-09-29T07:06:50;11.00;1.00
21255;DHT22;10785;50.674;17.954;2022-09-29T07:09:19;11.00;1.00
21255;DHT22;10785;50.674;17.954;2022-09-29T07:11:52;11.10;1.00
21255;DHT22;10785;50.674;17.954;2022-09-29T07:14:22;11.10;69.80
21255;DHT22;10785;50.674;17.954;2022-09-29T07:16:52;11.10;99.90
21255;DHT22;10785;50.674;17.954;2022-09-29T07:19:21;11.10;1.00
21255;DHT22;10785;50.674;17.954;2022-09-29T07:21:51;11.20;1.00
21255;DHT22;10785;50.674;17.954;2022-09-29T07:24:19;11.20;99.90
21255;DHT22;10785;50.674;17.954;2022-09-29T07:26:49;11.10;1.00
21255;DHT22;10785;50.674;17.954;2022-09-29T07:29:19;11.10;99.90
21255;DHT22;10785;50.674;17.954;2022-09-29T07:31:48;11.10;99.90
21255;DHT22;10785;50.674;17.954;2022-09-29T07:34:20;11.20;1.00
21255;DHT22;10785;50.674;17.954;2022-09-29T07:36:50;11.30;99.90
21255;DHT22;10785;50.674;17.954;2022-09-29T07:39:19;11.40;99.90
21255;DHT22;10785;50.674;17.954;2022-09-29T07:41:49;11.60;1.00
21255;DHT22;10785;50.674;17.954;2022-09-29T07:44:20;11.80;1.00
21255;DHT22;10785;50.674;17.954;2022-09-29T07:46:49;11.90;99.90
21255;DHT22;10785;50.674;17.954;2022-09-29T07:49:18;12.10;1.00
21255;DHT22;10785;50.674;17.954;2022-09-29T07:51:47;12.20;1.00
21255;DHT22;10785;50.674;17.954;2022-09-29T07:54:15;12.10;1.00
21255;DHT22;10785;50.674;17.954;2022-09-29T07:56:44;12.00;1.00
21255;DHT22;10785;50.674;17.954;2022-09-29T07:59:14;11.90;1.00
21255;DHT22;10785;50.674;17.954;2022-09-29T08:01:44;11.90;51.00
21255;DHT22;10785;50.674;17.954;2022-09-29T08:04:13;12.10;99.90
